sensor_id;sensor_type;location;lat;lon;timestamp;temperature;humidity
4602;DHT22;2313;48.552;9.370;2022-10-17T00:01:40;18.40;99.90
4602;DHT22;2313;48.552;9.370;2022-10-17T00:04:06;17.80;99.90
4602;DHT22;2313;48.552;9.370;2022-10-17T00:06:31;17.40;99.90
4602;DHT22;2313;48.552;9.370;2022-10-17T00:08:57;17.10;99.90
4602;DHT22;2313;48.552;9.370;2022-10-17T00:11:23;16.90;99.90
4602;DHT22;2313;48.552;9.370;2022-10-17T00:13:50;16.70;99.90
4602;DHT22;2313;48.552;9.370;2022-10-17T00:16:30;16.50;99.90
4602;DHT22;2313;48.552;9.370;2022-10-17T00:18:56;16.40;99.90
4602;DHT22;2313;48.552;9.370;2022-10-17T00:21:23;16.30;99.90
4602;DHT22;2313;48.552;9.370;2022-10-17T00:23:49;16.10;99.90
4602;DHT22;2313;48.552;9.370;2022-10-17T00:26:15;16.10;99.90
4602;DHT22;2313;48.552;9.370;2022-10-17T00:28:41;16.00;99.90
4602;DHT22;2313;48.552;9.370;2022-10-17T00:31:07;15.90;99.90
4602;DHT22;2313;48.552;9.370;2022-10-17T00:33:34;15.80;99.90
4602;DHT22;2313;48.552;9.370;2022-10-17T00:38:42;15.60;99.90
4602;DHT22;2313;48.552;9.370;2022-10-17T00:41:10;15.50;99.90
4602;DHT22;2313;48.552;9.370;2022-10-17T00:46:28;15.40;99.90
4602;DHT22;2313;48.552;9.370;2022-10-17T00:48:56;15.40;99.90
4602;DHT22;2313;48.552;9.370;2022-10-17T00:51:29;15.40;99.90
4602;DHT22;2313;48.552;9.370;2022-10-17T00:53:57;15.30;99.90
4602;DHT22;2313;48.552;9.370;2022-10-17T00:56:24;15.30;99.90
4602;DHT22;2313;48.552;9.370;2022-10-17T00:58:50;15.20;99.90
4602;DHT22;2313;48.552;9.370;2022-10-17T01:01:15;15.20;99.90
4602;DHT22;2313;48.552;9.370;2022-10-17T01:03:41;15.20;99.90
4602;DHT22;2313;48.552;9.370;2022-10-17T01:06:07;15.10;99.90
4602;DHT22;2313;48.552;9.370;2022-10-17T01:08:33;15.10;99.90
4602;DHT22;2313;48.552;9.370;2022-10-17T01:13:51;15.00;99.90
4602;DHT22;2313;48.552;9.370;2022-10-17T01:16:43;15.00;99.90
4602;DHT22;2313;48.552;9.370;2022-10-17T01:19:22;14.90;99.90
4602;DHT22;2313;48.552;9.370;2022-10-17T01:29:56;14.60;99.90
4602;DHT22;2313;48.552;9.370;2022-10-17T01:32:43;14.50;99.90
4602;DHT22;2313;48.552;9.370;2022-10-17T01:37:47;14.30;99.90
4602;DHT22;2313;48.552;9.370;2022-10-17T01:40:28;14.20;99.90
4602;DHT22;2313;48.552;9.370;2022-10-17T01:43:02;14.10;99.90
4602;DHT22;2313;48.552;9.370;2022-10-17T01:45:51;14.10;99.90
4602;DHT22;2313;48.552;9.370;2022-10-17T01:48:21;14.10;99.90
4602;DHT22;2313;48.552;9.370;2022-10-17T01:50:52;14.00;99.90
4602;DHT22;2313;48.552;9.370;2022-10-17T01:53:23;14.00;99.90
4602;DHT22;2313;48.552;9.370;2022-10-17T01:55:53;13.80;99.90
4602;DHT22;2313;48.552;9.370;2022-10-17T01:58:23;13.80;99.90
4602;DHT22;2313;48.552;9.370;2022-10-17T02:00:53;13.70;99.90
4602;DHT22;2313;48.552;9.370;2022-10-17T02:03:21;13.70;99.90
4602;DHT22;2313;48.552;9.370;2022-10-17T02:05:47;13.60;99.90
4602;DHT22;2313;48.552;9.370;2022-10-17T02:08:23;13.50;99.90
4602;DHT22;2313;48.552;9.370;2022-10-17T02:11:02;13.60;99.90
4602;DHT22;2313;48.552;9.370;2022-10-17T02:24:39;13.40;99.90
4602;DHT22;2313;48.552;9.370;2022-10-17T02:27:42;13.40;99.90
4602;DHT22;2313;48.552;9.370;2022-10-17T02:30:28;13.40;99.90
4602;DHT22;2313;48.552;9.370;2022-10-17T02:33:19;13.40;99.90
4602;DHT22;2313;48.552;9.370;2022-10-17T02:35:52;13.30;99.90
4602;DHT22;2313;48.552;9.370;2022-10-17T02:38:19;13.60;99.90
4602;DHT22;2313;48.552;9.370;2022-10-17T02:40:48;13.50;99.90
4602;DHT22;2313;48.552;9.370;2022-10-17T02:43:14;13.40;99.90
4602;DHT22;2313;48.552;9.370;2022-10-17T02:45:40;13.30;99.90
4602;DHT22;2313;48.552;9.370;2022-10-17T02:48:27;13.30;99.90
4602;DHT22;2313;48.552;9.370;2022-10-17T02:51:10;13.30;99.90
4602;DHT22;2313;48.552;9.370;2022-10-17T02:56:15;13.30;99.90
4602;DHT22;2313;48.552;9.370;2022-10-17T02:58:42;13.30;99.90
4602;DHT22;2313;48.552;9.370;2022-10-17T03:01:10;13.30;99.90
4602;DHT22;2313;48.552;9.370;2022-10-17T03:03:36;13.30;99.90
4602;DHT22;2313;48.552;9.370;2022-10-17T03:06:02;13.40;99.90
4602;DHT22;2313;48.552;9.370;2022-10-17T03:08:27;13.30;99.90
4602;DHT22;2313;48.552;9.370;2022-10-17T03:10:53;13.20;99.90
4602;DHT22;2313;48.552;9.370;2022-10-17T03:13:18;13.10;99.90
4602;DHT22;2313;48.552;9.370;2022-10-17T03:15:44;13.10;99.90
4602;DHT22;2313;48.552;9.370;2022-10-17T03:18:10;13.00;99.90
4602;DHT22;2313;48.552;9.370;2022-10-17T03:20:36;12.80;99.90
4602;DHT22;2313;48.552;9.370;2022-10-17T03:23:01;12.60;99.90
4602;DHT22;2313;48.552;9.370;2022-10-17T03:25:27;12.40;99.90
4602;DHT22;2313;48.552;9.370;2022-10-17T03:27:53;12.20;99.90
4602;DHT22;2313;48.552;9.370;2022-10-17T03:30:18;12.30;99.90
4602;DHT22;2313;48.552;9.370;2022-10-17T03:32:44;12.30;99.90
4602;DHT22;2313;48.552;9.370;2022-10-17T03:35:10;12.40;99.90
4602;DHT22;2313;48.552;9.370;2022-10-17T03:37:35;12.50;99.90
4602;DHT22;2313;48.552;9.370;2022-10-17T03:40:01;12.50;99.90
4602;DHT22;2313;48.552;9.370;2022-10-17T03:42:27;12.60;99.90
4602;DHT22;2313;48.552;9.370;2022-10-17T03:44:52;12.70;99.90
4602;DHT22;2313;48.552;9.370;2022-10-17T03:47:18;12.80;99.90
4602;DHT22;2313;48.552;9.370;2022-10-17T03:49:43;12.90;99.90
4602;DHT22;2313;48.552;9.370;2022-10-17T03:52:13;12.90;99.90
4602;DHT22;2313;48.552;9.370;2022-10-17T03:54:39;13.00;99.90
4602;DHT22;2313;48.552;9.370;2022-10-17T03:57:04;13.00;99.90
4602;DHT22;2313;48.552;9.370;2022-10-17T03:59:30;12.90;99.90
4602;DHT22;2313;48.552;9.370;2022-10-17T04:01:56;12.90;99.90
4602;DHT22;2313;48.552;9.370;2022-10-17T04:04:21;12.80;99.90
4602;DHT22;2313;48.552;9.370;2022-10-17T04:06:47;12.70;99.90
4602;DHT22;2313;48.552;9.370;2022-10-17T04:09:13;12.60;99.90
4602;DHT22;2313;48.552;9.370;2022-10-17T04:11:38;12.50;99.90
4602;DHT22;2313;48.552;9.370;2022-10-17T04:14:04;12.40;99.90
4602;DHT22;2313;48.552;9.370;2022-10-17T04:16:30;12.40;99.90
4602;DHT22;2313;48.552;9.370;2022-10-17T04:18:57;12.50;99.90
4602;DHT22;2313;48.552;9.370;2022-10-17T04:21:25;12.50;99.90
4602;DHT22;2313;48.552;9.370;2022-10-17T04:23:55;12.60;99.90
4602;DHT22;2313;48.552;9.370;2022-10-17T04:26:21;12.60;99.90
4602;DHT22;2313;48.552;9.370;2022-10-17T04:28:47;12.60;99.90
4602;DHT22;2313;48.552;9.370;2022-10-17T04:31:13;12.70;99.90
4602;DHT22;2313;48.552;9.370;2022-10-17T04:33:39;12.80;99.90
4602;DHT22;2313;48.552;9.370;2022-10-17T04:36:08;12.80;99.90
4602;DHT22;2313;48.552;9.370;2022-10-17T04:38:34;12.70;99.90
4602;DHT22;2313;48.552;9.370;2022-10-17T04:41:01;12.70;99.90
4602;DHT22;2313;48.552;9.370;2022-10-17T04:43:31;12.60;99.90
4602;DHT22;2313;48.552;9.370;2022-10-17T04:45:58;12.60;99.90
4602;DHT22;2313;48.552;9.370;2022-10-17T04:48:24;12.60;99.90
4602;DHT22;2313;48.552;9.370;2022-10-17T04:50:54;12.60;99.90
4602;DHT22;2313;48.552;9.370;2022-10-17T04:53:21;12.60;99.90
4602;DHT22;2313;48.552;9.370;2022-10-17T04:55:47;12.50;99.90
4602;DHT22;2313;48.552;9.370;2022-10-17T04:58:12;12.40;99.90
4602;DHT22;2313;48.552;9.370;2022-10-17T05:00:38;12.40;99.90
4602;DHT22;2313;48.552;9.370;2022-10-17T05:03:04;12.40;99.90
4602;DHT22;2313;48.552;9.370;2022-10-17T05:05:30;12.30;99.90
4602;DHT22;2313;48.552;9.370;2022-10-17T05:07:56;12.30;99.90
4602;DHT22;2313;48.552;9.370;2022-10-17T05:10:22;12.30;99.90
4602;DHT22;2313;48.552;9.370;2022-10-17T05:12:48;12.30;99.90
4602;DHT22;2313;48.552;9.370;2022-10-17T05:15:14;12.30;99.90
4602;DHT22;2313;48.552;9.370;2022-10-17T05:17:40;12.20;99.90
4602;DHT22;2313;48.552;9.370;2022-10-17T05:20:06;12.20;99.90
4602;DHT22;2313;48.552;9.370;2022-10-17T05:22:32;12.20;99.90
4602;DHT22;2313;48.552;9.370;2022-10-17T05:24:57;12.30;99.90
4602;DHT22;2313;48.552;9.370;2022-10-17T05:27:23;12.30;99.90
4602;DHT22;2313;48.552;9.370;2022-10-17T05:29:48;12.40;99.90
4602;DHT22;2313;48.552;9.370;2022-10-17T05:32:15;12.30;99.90
4602;DHT22;2313;48.552;9.370;2022-10-17T05:34:41;12.20;99.90
4602;DHT22;2313;48.552;9.370;2022-10-17T05:37:06;12.20;99.90
4602;DHT22;2313;48.552;9.370;2022-10-17T05:39:32;12.30;99.90
4602;DHT22;2313;48.552;9.370;2022-10-17T05:41:58;12.30;99.90
4602;DHT22;2313;48.552;9.370;2022-10-17T05:44:23;12.30;99.90
4602;DHT22;2313;48.552;9.370;2022-10-17T05:46:49;12.30;99.90
4602;DHT22;2313;48.552;9.370;2022-10-17T05:49:15;12.20;99.90
4602;DHT22;2313;48.552;9.370;2022-10-17T05:51:40;12.20;99.90
4602;DHT22;2313;48.552;9.370;2022-10-17T05:54:07;12.30;99.90
4602;DHT22;2313;48.552;9.370;2022-10-17T05:56:33;12.30;99.90
4602;DHT22;2313;48.552;9.370;2022-10-17T05:58:59;12.30;99.90
4602;DHT22;2313;48.552;9.370;2022-10-17T06:01:24;12.30;99.90
4602;DHT22;2313;48.552;9.370;2022-10-17T06:03:50;12.20;99.90
4602;DHT22;2313;48.552;9.370;2022-10-17T06:06:17;12.20;99.90
4602;DHT22;2313;48.552;9.370;2022-10-17T06:08:43;12.20;99.90
4602;DHT22;2313;48.552;9.370;2022-10-17T06:11:10;12.30;99.90
4602;DHT22;2313;48.552;9.370;2022-10-17T06:13:36;12.20;99.90
4602;DHT22;2313;48.552;9.370;2022-10-17T06:16:02;12.30;99.90
4602;DHT22;2313;48.552;9.370;2022-10-17T06:18:27;12.30;99.90
4602;DHT22;2313;48.552;9.370;2022-10-17T06:20:53;12.30;99.90
4602;DHT22;2313;48.552;9.370;2022-10-17T06:23:19;12.40;99.90
4602;DHT22;2313;48.552;9.370;2022-10-17T06:25:44;12.40;99.90
4602;DHT22;2313;48.552;9.370;2022-10-17T06:28:10;12.50;99.90
4602;DHT22;2313;48.552;9.370;2022-10-17T06:30:38;12.50;99.90
4602;DHT22;2313;48.552;9.370;2022-10-17T06:33:04;12.60;99.90
4602;DHT22;2313;48.552;9.370;2022-10-17T06:35:30;12.60;99.90
4602;DHT22;2313;48.552;9.370;2022-10-17T06:37:56;12.50;99.90
4602;DHT22;2313;48.552;9.370;2022-10-17T06:40:21;12.40;99.90
4602;DHT22;2313;48.552;9.370;2022-10-17T06:42:47;12.50;99.90
4602;DHT22;2313;48.552;9.370;2022-10-17T06:45:13;12.70;99.90
4602;DHT22;2313;48.552;9.370;2022-10-17T06:47:39;12.90;99.90
4602;DHT22;2313;48.552;9.370;2022-10-17T06:50:05;13.10;99.90
4602;DHT22;2313;48.552;9.370;2022-10-17T06:52:30;13.10;99.90
4602;DHT22;2313;48.552;9.370;2022-10-17T06:54:56;13.20;99.90
4602;DHT22;2313;48.552;9.370;2022-10-17T06:57:22;13.20;99.90
4602;DHT22;2313;48.552;9.370;2022-10-17T06:59:47;13.30;99.90
4602;DHT22;2313;48.552;9.370;2022-10-17T07:02:13;13.30;99.90
4602;DHT22;2313;48.552;9.370;2022-10-17T07:04:38;13.40;99.90
4602;DHT22;2313;48.552;9.370;2022-10-17T07:07:04;13.50;99.90
4602;DHT22;2313;48.552;9.370;2022-10-17T07:09:30;13.70;99.90
4602;DHT22;2313;48.552;9.370;2022-10-17T07:11:57;13.80;99.90
4602;DHT22;2313;48.552;9.370;2022-10-17T07:14:23;13.90;99.90
4602;DHT22;2313;48.552;9.370;2022-10-17T07:16:56;14.00;99.90
4602;DHT22;2313;48.552;9.370;2022-10-17T07:19:22;14.10;99.90
4602;DHT22;2313;48.552;9.370;2022-10-17T07:21:48;14.20;99.90
4602;DHT22;2313;48.552;9.370;2022-10-17T07:24:14;14.30;99.90
4602;DHT22;2313;48.552;9.370;2022-10-17T07:26:39;14.50;99.90
4602;DHT22;2313;48.552;9.370;2022-10-17T07:29:05;14.50;99.90
4602;DHT22;2313;48.552;9.370;2022-10-17T07:31:32;14.60;99.90
4602;DHT22;2313;48.552;9.370;2022-10-17T07:34:01;14.80;99.90
4602;DHT22;2313;48.552;9.370;2022-10-17T07:36:35;14.80;99.90
4602;DHT22;2313;48.552;9.370;2022-10-17T07:39:01;14.90;99.90
4602;DHT22;2313;48.552;9.370;2022-10-17T07:41:27;15.00;99.90
4602;DHT22;2313;48.552;9.370;2022-10-17T07:43:52;15.00;99.90
4602;DHT22;2313;48.552;9.370;2022-10-17T07:46:18;14.90;99.90
4602;DHT22;2313;48.552;9.370;2022-10-17T07:48:43;14.90;99.90
4602;DHT22;2313;48.552;9.370;2022-10-17T07:51:09;15.00;99.90
4602;DHT22;2313;48.552;9.370;2022-10-17T07:53:36;15.20;99.90
4602;DHT22;2313;48.552;9.370;2022-10-17T07:56:06;15.40;99.90
4602;DHT22;2313;48.552;9.370;2022-10-17T07:58:32;15.50;99.90
4602;DHT22;2313;48.552;9.370;2022-10-17T08:01:07;15.60;99.90
4602;DHT22;2313;48.552;9.370;2022-10-17T08:03:33;15.70;99.90
4602;DHT22;2313;48.552;9.370;2022-10-17T08:06:00;15.90;99.90
4602;DHT22;2313;48.552;9.370;2022-10-17T08:08:26;16.00;99.90
4602;DHT22;2313;48.552;9.370;2022-10-17T08:10:53;16.00;99.90
4602;DHT22;2313;48.552;9.370;2022-10-17T08:13:19;16.20;99.90
4602;DHT22;2313;48.552;9.370;2022-10-17T08:15:45;16.30;99.90
4602;DHT22;2313;48.552;9.370;2022-10-17T08:18:13;16.40;99.90
4602;DHT22;2313;48.552;9.370;2022-10-17T08:20:39;16.50;99.90
4602;DHT22;2313;48.552;9.370;2022-10-17T08:23:05;16.60;99.90
4602;DHT22;2313;48.552;9.370;2022-10-17T08:25:31;16.80;99.90
4602;DHT22;2313;48.552;9.370;2022-10-17T08:27:58;16.90;99.90
4602;DHT22;2313;48.552;9.370;2022-10-17T08:30:24;17.00;99.90
4602;DHT22;2313;48.552;9.370;2022-10-17T08:32:50;17.20;99.90
4602;DHT22;2313;48.552;9.370;2022-10-17T08:35:15;17.30;99.90
4602;DHT22;2313;48.552;9.370;2022-10-17T08:37:41;17.50;99.90
4602;DHT22;2313;48.552;9.370;2022-10-17T08:40:18;17.70;99.90
4602;DHT22;2313;48.552;9.370;2022-10-17T08:48:03;19.30;99.90
4602;DHT22;2313;48.552;9.370;2022-10-17T08:50:37;20.20;99.90
4602;DHT22;2313;48.552;9.370;2022-10-17T08:55:45;21.50;99.90
4602;DHT22;2313;48.552;9.370;2022-10-17T08:58:28;21.90;99.90
4602;DHT22;2313;48.552;9.370;2022-10-17T09:06:24;23.30;99.90
4602;DHT22;2313;48.552;9.370;2022-10-17T09:09:11;24.10;99.90
4602;DHT22;2313;48.552;9.370;2022-10-17T09:12:01;24.40;99.90
4602;DHT22;2313;48.552;9.370;2022-10-17T09:14:52;25.00;99.90
4602;DHT22;2313;48.552;9.370;2022-10-17T09:20:11;25.70;97.90
4602;DHT22;2313;48.552;9.370;2022-10-17T09:23:01;25.80;98.20
4602;DHT22;2313;48.552;9.370;2022-10-17T09:25:39;25.80;97.80
4602;DHT22;2313;48.552;9.370;2022-10-17T09:28:19;25.90;97.60
4602;DHT22;2313;48.552;9.370;2022-10-17T09:33:20;26.00;96.80
4602;DHT22;2313;48.552;9.370;2022-10-17T09:35:48;26.00;96.30
4602;DHT22;2313;48.552;9.370;2022-10-17T09:38:22;26.00;96.50
4602;DHT22;2313;48.552;9.370;2022-10-17T09:40:59;26.40;97.30
4602;DHT22;2313;48.552;9.370;2022-10-17T09:43:25;26.90;96.50
4602;DHT22;2313;48.552;9.370;2022-10-17T09:51:01;28.30;93.70
4602;DHT22;2313;48.552;9.370;2022-10-17T09:53:36;28.70;93.20
4602;DHT22;2313;48.552;9.370;2022-10-17T09:56:08;28.90;92.40
4602;DHT22;2313;48.552;9.370;2022-10-17T09:58:47;29.10;91.80
4602;DHT22;2313;48.552;9.370;2022-10-17T10:03:41;29.40;89.60
4602;DHT22;2313;48.552;9.370;2022-10-17T10:06:19;29.50;87.80
4602;DHT22;2313;48.552;9.370;2022-10-17T10:08:56;29.60;86.60
4602;DHT22;2313;48.552;9.370;2022-10-17T10:11:54;29.80;84.40
4602;DHT22;2313;48.552;9.370;2022-10-17T10:14:31;29.80;85.10
4602;DHT22;2313;48.552;9.370;2022-10-17T10:16:58;29.70;86.10
4602;DHT22;2313;48.552;9.370;2022-10-17T10:19:28;29.70;87.50
4602;DHT22;2313;48.552;9.370;2022-10-17T10:21:59;30.00;85.20
4602;DHT22;2313;48.552;9.370;2022-10-17T10:24:25;30.30;84.60
4602;DHT22;2313;48.552;9.370;2022-10-17T10:26:53;30.20;83.90
4602;DHT22;2313;48.552;9.370;2022-10-17T10:32:36;30.40;82.10
4602;DHT22;2313;48.552;9.370;2022-10-17T10:35:05;30.20;84.20
4602;DHT22;2313;48.552;9.370;2022-10-17T10:37:39;29.90;83.20
4602;DHT22;2313;48.552;9.370;2022-10-17T10:40:15;30.40;82.40
4602;DHT22;2313;48.552;9.370;2022-10-17T10:42:46;30.50;83.00
4602;DHT22;2313;48.552;9.370;2022-10-17T10:45:40;30.70;84.20
4602;DHT22;2313;48.552;9.370;2022-10-17T10:48:25;30.80;82.80
4602;DHT22;2313;48.552;9.370;2022-10-17T10:50:59;30.80;83.50
4602;DHT22;2313;48.552;9.370;2022-10-17T10:56:45;30.40;81.60
4602;DHT22;2313;48.552;9.370;2022-10-17T10:59:29;30.00;86.20
4602;DHT22;2313;48.552;9.370;2022-10-17T11:05:09;30.10;87.40
4602;DHT22;2313;48.552;9.370;2022-10-17T11:07:44;29.90;85.80
4602;DHT22;2313;48.552;9.370;2022-10-17T11:15:38;29.90;83.40
4602;DHT22;2313;48.552;9.370;2022-10-17T11:18:06;29.70;84.50
4602;DHT22;2313;48.552;9.370;2022-10-17T11:23:48;29.50;85.40
4602;DHT22;2313;48.552;9.370;2022-10-17T11:26:22;29.20;85.50
4602;DHT22;2313;48.552;9.370;2022-10-17T11:28:52;29.30;87.80
4602;DHT22;2313;48.552;9.370;2022-10-17T11:31:19;29.20;85.40
4602;DHT22;2313;48.552;9.370;2022-10-17T11:36:31;29.00;86.60
4602;DHT22;2313;48.552;9.370;2022-10-17T11:39:04;29.00;85.00
4602;DHT22;2313;48.552;9.370;2022-10-17T11:41:42;28.90;86.30
4602;DHT22;2313;48.552;9.370;2022-10-17T11:44:32;28.80;86.40
4602;DHT22;2313;48.552;9.370;2022-10-17T11:47:46;28.90;86.30
4602;DHT22;2313;48.552;9.370;2022-10-17T11:50:02;29.00;86.60
4602;DHT22;2313;48.552;9.370;2022-10-17T11:53:00;29.10;81.40
4602;DHT22;2313;48.552;9.370;2022-10-17T11:55:29;29.00;81.70
4602;DHT22;2313;48.552;9.370;2022-10-17T12:01:30;28.70;76.90
4602;DHT22;2313;48.552;9.370;2022-10-17T12:07:14;28.30;76.40
4602;DHT22;2313;48.552;9.370;2022-10-17T12:09:39;28.10;75.00
4602;DHT22;2313;48.552;9.370;2022-10-17T12:12:07;27.90;73.60
4602;DHT22;2313;48.552;9.370;2022-10-17T12:14:40;28.00;78.60
4602;DHT22;2313;48.552;9.370;2022-10-17T12:22:49;27.90;75.50
4602;DHT22;2313;48.552;9.370;2022-10-17T12:25:27;27.80;76.20
4602;DHT22;2313;48.552;9.370;2022-10-17T12:30:32;27.80;75.90
4602;DHT22;2313;48.552;9.370;2022-10-17T12:33:18;27.60;73.60
4602;DHT22;2313;48.552;9.370;2022-10-17T12:35:49;27.70;74.60
4602;DHT22;2313;48.552;9.370;2022-10-17T12:38:22;27.50;74.50
4602;DHT22;2313;48.552;9.370;2022-10-17T12:40:51;27.40;75.10
4602;DHT22;2313;48.552;9.370;2022-10-17T12:45:52;27.30;74.90
4602;DHT22;2313;48.552;9.370;2022-10-17T12:51:20;27.50;76.60
4602;DHT22;2313;48.552;9.370;2022-10-17T12:54:00;27.20;76.20
4602;DHT22;2313;48.552;9.370;2022-10-17T12:56:40;27.00;75.80
4602;DHT22;2313;48.552;9.370;2022-10-17T12:59:25;27.00;75.10
4602;DHT22;2313;48.552;9.370;2022-10-17T13:01:57;27.00;76.90
4602;DHT22;2313;48.552;9.370;2022-10-17T13:04:24;27.00;75.70
4602;DHT22;2313;48.552;9.370;2022-10-17T13:06:53;26.70;72.70
4602;DHT22;2313;48.552;9.370;2022-10-17T13:09:30;26.60;75.90
4602;DHT22;2313;48.552;9.370;2022-10-17T13:11:59;26.40;73.10
4602;DHT22;2313;48.552;9.370;2022-10-17T13:14:26;26.40;74.50
4602;DHT22;2313;48.552;9.370;2022-10-17T13:17:04;26.40;76.00
4602;DHT22;2313;48.552;9.370;2022-10-17T13:19:44;26.20;74.80
4602;DHT22;2313;48.552;9.370;2022-10-17T13:22:36;26.30;77.70
4602;DHT22;2313;48.552;9.370;2022-10-17T13:25:14;26.10;74.50
4602;DHT22;2313;48.552;9.370;2022-10-17T13:27:40;26.10;75.20
4602;DHT22;2313;48.552;9.370;2022-10-17T13:30:31;26.00;76.20
4602;DHT22;2313;48.552;9.370;2022-10-17T13:32:57;26.00;78.40
4602;DHT22;2313;48.552;9.370;2022-10-17T13:37:55;25.70;74.00
4602;DHT22;2313;48.552;9.370;2022-10-17T13:40:26;25.60;75.70
4602;DHT22;2313;48.552;9.370;2022-10-17T13:42:55;25.50;76.50
4602;DHT22;2313;48.552;9.370;2022-10-17T13:45:44;25.40;76.30
4602;DHT22;2313;48.552;9.370;2022-10-17T13:48:22;25.40;78.30
4602;DHT22;2313;48.552;9.370;2022-10-17T13:50:52;25.30;78.10
4602;DHT22;2313;48.552;9.370;2022-10-17T13:53:44;25.30;78.50
4602;DHT22;2313;48.552;9.370;2022-10-17T13:56:24;25.20;77.20
4602;DHT22;2313;48.552;9.370;2022-10-17T13:58:52;25.00;77.50
4602;DHT22;2313;48.552;9.370;2022-10-17T14:01:19;25.00;80.20
4602;DHT22;2313;48.552;9.370;2022-10-17T14:03:46;24.90;78.80
4602;DHT22;2313;48.552;9.370;2022-10-17T14:06:19;24.90;79.00
4602;DHT22;2313;48.552;9.370;2022-10-17T14:09:02;24.80;77.90
4602;DHT22;2313;48.552;9.370;2022-10-17T14:11:38;24.70;76.60
4602;DHT22;2313;48.552;9.370;2022-10-17T14:14:25;24.60;76.50
4602;DHT22;2313;48.552;9.370;2022-10-17T14:16:51;24.60;76.40
4602;DHT22;2313;48.552;9.370;2022-10-17T14:19:30;24.60;77.40
4602;DHT22;2313;48.552;9.370;2022-10-17T14:24:44;24.50;79.70
4602;DHT22;2313;48.552;9.370;2022-10-17T14:27:33;24.50;77.80
4602;DHT22;2313;48.552;9.370;2022-10-17T14:30:02;24.40;78.10
4602;DHT22;2313;48.552;9.370;2022-10-17T14:32:30;24.30;77.60
4602;DHT22;2313;48.552;9.370;2022-10-17T14:34:59;24.30;80.60
4602;DHT22;2313;48.552;9.370;2022-10-17T14:37:42;24.30;79.20
4602;DHT22;2313;48.552;9.370;2022-10-17T14:40:17;24.30;80.00
4602;DHT22;2313;48.552;9.370;2022-10-17T14:42:44;24.20;79.90
4602;DHT22;2313;48.552;9.370;2022-10-17T14:45:37;24.20;81.40
4602;DHT22;2313;48.552;9.370;2022-10-17T14:48:13;24.10;81.20
4602;DHT22;2313;48.552;9.370;2022-10-17T14:50:39;24.10;82.60
4602;DHT22;2313;48.552;9.370;2022-10-17T14:55:37;23.90;82.80
4602;DHT22;2313;48.552;9.370;2022-10-17T14:58:27;23.90;84.00
4602;DHT22;2313;48.552;9.370;2022-10-17T15:00:54;23.80;84.60
4602;DHT22;2313;48.552;9.370;2022-10-17T15:03:20;23.80;84.00
4602;DHT22;2313;48.552;9.370;2022-10-17T15:05:46;23.70;84.40
4602;DHT22;2313;48.552;9.370;2022-10-17T15:08:17;23.60;85.20
4602;DHT22;2313;48.552;9.370;2022-10-17T15:10:44;23.60;87.70
4602;DHT22;2313;48.552;9.370;2022-10-17T15:13:10;23.40;87.20
4602;DHT22;2313;48.552;9.370;2022-10-17T15:15:37;23.30;87.20
4602;DHT22;2313;48.552;9.370;2022-10-17T15:18:03;23.30;87.50
4602;DHT22;2313;48.552;9.370;2022-10-17T15:20:30;23.20;89.90
4602;DHT22;2313;48.552;9.370;2022-10-17T15:22:57;23.10;88.30
4602;DHT22;2313;48.552;9.370;2022-10-17T15:25:24;22.90;90.70
4602;DHT22;2313;48.552;9.370;2022-10-17T15:27:50;22.80;91.50
4602;DHT22;2313;48.552;9.370;2022-10-17T15:32:51;22.70;91.60
4602;DHT22;2313;48.552;9.370;2022-10-17T15:35:18;22.60;92.90
4602;DHT22;2313;48.552;9.370;2022-10-17T15:37:44;22.50;92.90
4602;DHT22;2313;48.552;9.370;2022-10-17T15:40:16;22.40;93.10
4602;DHT22;2313;48.552;9.370;2022-10-17T15:42:42;22.30;93.30
4602;DHT22;2313;48.552;9.370;2022-10-17T15:45:10;22.20;93.80
4602;DHT22;2313;48.552;9.370;2022-10-17T15:47:36;22.10;94.50
4602;DHT22;2313;48.552;9.370;2022-10-17T15:50:03;22.10;95.50
4602;DHT22;2313;48.552;9.370;2022-10-17T15:52:30;21.90;97.40
4602;DHT22;2313;48.552;9.370;2022-10-17T15:54:56;21.80;99.50
4602;DHT22;2313;48.552;9.370;2022-10-17T15:57:27;21.60;99.90
4602;DHT22;2313;48.552;9.370;2022-10-17T15:59:56;21.50;99.90
4602;DHT22;2313;48.552;9.370;2022-10-17T16:02:23;21.30;99.90
4602;DHT22;2313;48.552;9.370;2022-10-17T16:04:50;21.20;99.90
4602;DHT22;2313;48.552;9.370;2022-10-17T16:07:17;21.00;99.90
4602;DHT22;2313;48.552;9.370;2022-10-17T16:09:44;20.80;99.90
4602;DHT22;2313;48.552;9.370;2022-10-17T16:12:13;20.60;99.90
4602;DHT22;2313;48.552;9.370;2022-10-17T16:14:39;20.50;99.90
4602;DHT22;2313;48.552;9.370;2022-10-17T16:17:07;20.30;99.90
4602;DHT22;2313;48.552;9.370;2022-10-17T16:19:33;20.20;99.90
4602;DHT22;2313;48.552;9.370;2022-10-17T16:22:00;20.10;99.90
4602;DHT22;2313;48.552;9.370;2022-10-17T16:24:26;20.00;99.90
4602;DHT22;2313;48.552;9.370;2022-10-17T16:26:52;19.90;99.90
4602;DHT22;2313;48.552;9.370;2022-10-17T16:29:17;19.80;99.90
4602;DHT22;2313;48.552;9.370;2022-10-17T16:31:45;19.60;99.90
4602;DHT22;2313;48.552;9.370;2022-10-17T16:34:12;19.50;99.90
4602;DHT22;2313;48.552;9.370;2022-10-17T16:36:39;19.30;99.90
4602;DHT22;2313;48.552;9.370;2022-10-17T16:39:05;19.20;99.90
4602;DHT22;2313;48.552;9.370;2022-10-17T16:41:33;19.10;99.90
4602;DHT22;2313;48.552;9.370;2022-10-17T16:44:02;19.00;99.90
4602;DHT22;2313;48.552;9.370;2022-10-17T16:46:29;19.00;99.90
4602;DHT22;2313;48.552;9.370;2022-10-17T16:48:55;18.80;99.90
4602;DHT22;2313;48.552;9.370;2022-10-17T16:51:21;18.70;99.90
4602;DHT22;2313;48.552;9.370;2022-10-17T16:53:49;18.60;99.90
4602;DHT22;2313;48.552;9.370;2022-10-17T16:56:19;18.50;99.90
4602;DHT22;2313;48.552;9.370;2022-10-17T16:58:45;18.30;99.90
4602;DHT22;2313;48.552;9.370;2022-10-17T17:01:22;18.20;99.90
4602;DHT22;2313;48.552;9.370;2022-10-17T17:03:48;18.10;99.90
4602;DHT22;2313;48.552;9.370;2022-10-17T17:06:20;17.90;99.90
4602;DHT22;2313;48.552;9.370;2022-10-17T17:08:46;17.80;99.90
4602;DHT22;2313;48.552;9.370;2022-10-17T17:11:16;17.80;99.90
4602;DHT22;2313;48.552;9.370;2022-10-17T17:13:42;17.70;99.90
4602;DHT22;2313;48.552;9.370;2022-10-17T17:16:10;17.70;99.90
4602;DHT22;2313;48.552;9.370;2022-10-17T17:18:36;17.70;99.90
4602;DHT22;2313;48.552;9.370;2022-10-17T17:21:05;17.60;99.90
4602;DHT22;2313;48.552;9.370;2022-10-17T17:23:36;17.60;99.90
4602;DHT22;2313;48.552;9.370;2022-10-17T17:26:23;17.40;99.90
4602;DHT22;2313;48.552;9.370;2022-10-17T17:28:50;17.40;99.90
4602;DHT22;2313;48.552;9.370;2022-10-17T17:31:21;17.40;99.90
4602;DHT22;2313;48.552;9.370;2022-10-17T17:33:49;17.40;99.90
4602;DHT22;2313;48.552;9.370;2022-10-17T17:36:21;17.30;99.90
4602;DHT22;2313;48.552;9.370;2022-10-17T17:38:49;17.20;99.90
4602;DHT22;2313;48.552;9.370;2022-10-17T17:41:17;17.20;99.90
4602;DHT22;2313;48.552;9.370;2022-10-17T17:43:44;17.10;99.90
4602;DHT22;2313;48.552;9.370;2022-10-17T17:46:10;16.90;99.90
4602;DHT22;2313;48.552;9.370;2022-10-17T17:48:37;16.70;99.90
4602;DHT22;2313;48.552;9.370;2022-10-17T17:51:04;16.60;99.90
4602;DHT22;2313;48.552;9.370;2022-10-17T17:53:30;16.70;99.90
4602;DHT22;2313;48.552;9.370;2022-10-17T17:56:10;16.80;99.90
4602;DHT22;2313;48.552;9.370;2022-10-17T17:58:39;16.90;99.90
4602;DHT22;2313;48.552;9.370;2022-10-17T18:01:13;17.00;99.90
4602;DHT22;2313;48.552;9.370;2022-10-17T18:03:42;17.10;99.90
4602;DHT22;2313;48.552;9.370;2022-10-17T18:06:08;17.20;99.90
4602;DHT22;2313;48.552;9.370;2022-10-17T18:08:34;17.20;99.90
4602;DHT22;2313;48.552;9.370;2022-10-17T18:11:00;17.10;99.90